createdAt,value
2019-03-20T00:00:39.035Z,5.53
2019-03-20T00:03:23.689Z,6.10
2019-03-20T00:11:42.579Z,6.15
2019-03-20T00:14:09.322Z,4.78
2019-03-20T00:16:36.131Z,4.75
2019-03-20T00:19:04.820Z,17.98
2019-03-20T00:21:33.446Z,8.20
2019-03-20T00:24:00.674Z,4.78
2019-03-20T00:26:27.379Z,4.80
2019-03-20T00:28:54.450Z,5.65
2019-03-20T00:31:24.309Z,5.87
2019-03-20T00:33:51.241Z,5.20
2019-03-20T00:36:18.028Z,4.30
2019-03-20T00:38:44.958Z,4.00
2019-03-20T00:41:11.637Z,10.80
2019-03-20T00:43:38.355Z,6.47
2019-03-20T00:46:05.146Z,7.42
2019-03-20T00:48:31.797Z,6.55
2019-03-20T00:50:58.578Z,4.30
2019-03-20T00:53:25.330Z,4.30
2019-03-20T00:55:52.186Z,3.70
2019-03-20T00:58:19.215Z,4.00
2019-03-20T01:00:46.899Z,3.52
2019-03-20T01:03:13.709Z,3.90
2019-03-20T01:05:40.557Z,4.22
2019-03-20T01:08:07.467Z,3.42
2019-03-20T01:10:34.431Z,3.58
2019-03-20T01:13:01.057Z,5.12
2019-03-20T01:15:27.751Z,5.22
2019-03-20T01:17:54.704Z,3.55
2019-03-20T01:20:23.009Z,3.92
2019-03-20T01:22:50.034Z,4.08
2019-03-20T01:25:19.066Z,4.12
2019-03-20T01:27:45.857Z,4.05
2019-03-20T01:30:37.984Z,3.55
2019-03-20T01:33:12.751Z,4.00
2019-03-20T01:35:40.007Z,3.62
2019-03-20T01:38:10.130Z,4.28
2019-03-20T01:40:40.320Z,3.40
2019-03-20T01:43:06.843Z,3.60
2019-03-20T01:45:33.754Z,3.98
2019-03-20T01:48:00.844Z,3.67
2019-03-20T01:50:27.638Z,3.87
2019-03-20T01:52:54.474Z,3.60
2019-03-20T01:55:21.295Z,3.95
2019-03-20T01:57:47.991Z,3.67
2019-03-20T02:00:14.952Z,3.60
2019-03-20T02:02:41.967Z,3.42
2019-03-20T02:05:09.979Z,3.70
2019-03-20T02:07:36.999Z,3.37
2019-03-20T02:10:10.501Z,3.45
2019-03-20T02:12:37.309Z,4.70
2019-03-20T02:15:07.739Z,6.28
2019-03-20T02:17:34.659Z,5.80
2019-03-20T02:20:02.095Z,5.92
2019-03-20T02:22:28.625Z,5.05
2019-03-20T02:24:55.130Z,4.78
2019-03-20T02:27:21.768Z,5.92
2019-03-20T02:29:48.262Z,6.55
2019-03-20T02:32:14.755Z,5.83
2019-03-20T02:34:41.322Z,6.22
2019-03-20T02:37:07.911Z,6.22
2019-03-20T02:39:34.399Z,8.95
2019-03-20T02:42:01.000Z,4.15
2019-03-20T02:44:27.687Z,3.77
2019-03-20T02:46:54.292Z,3.72
2019-03-20T02:49:20.905Z,5.40
2019-03-20T02:51:47.499Z,3.33
2019-03-20T02:54:14.233Z,3.75
2019-03-20T02:56:40.858Z,3.37
2019-03-20T02:59:07.327Z,3.47
2019-03-20T03:01:35.175Z,3.33
2019-03-20T03:04:01.750Z,3.70
2019-03-20T03:06:28.543Z,6.40
2019-03-20T03:08:55.008Z,6.42
2019-03-20T03:11:21.897Z,3.30
2019-03-20T03:13:48.567Z,3.25
2019-03-20T03:16:15.248Z,3.50
2019-03-20T03:18:42.101Z,4.50
2019-03-20T03:21:09.027Z,5.00
2019-03-20T03:23:35.644Z,7.65
2019-03-20T03:26:02.367Z,7.55
2019-03-20T03:28:29.210Z,8.68
2019-03-20T03:30:56.094Z,8.90
2019-03-20T03:33:22.931Z,9.15
2019-03-20T03:35:49.527Z,10.82
2019-03-20T03:38:16.085Z,9.03
2019-03-20T03:40:42.993Z,8.73
2019-03-20T03:43:09.714Z,8.25
2019-03-20T03:45:36.570Z,8.50
2019-03-20T03:48:03.422Z,7.70
2019-03-20T03:50:30.292Z,7.30
2019-03-20T03:52:57.135Z,7.70
2019-03-20T03:55:24.098Z,7.90
2019-03-20T03:57:51.164Z,7.15
2019-03-20T04:00:18.962Z,7.10
2019-03-20T04:02:45.915Z,7.15
2019-03-20T04:05:13.263Z,7.45
2019-03-20T04:07:40.157Z,6.03
2019-03-20T04:10:09.913Z,6.83
2019-03-20T04:12:36.763Z,6.87
2019-03-20T04:15:06.220Z,6.90
2019-03-20T04:17:32.979Z,6.20
2019-03-20T04:19:59.729Z,5.80
2019-03-20T04:22:26.528Z,6.40
2019-03-20T04:24:53.400Z,6.30
2019-03-20T04:27:20.253Z,5.97
2019-03-20T04:29:46.883Z,6.78
2019-03-20T04:32:13.764Z,5.92
2019-03-20T04:34:40.315Z,5.28
2019-03-20T04:37:07.085Z,5.47
2019-03-20T04:39:33.736Z,5.53
2019-03-20T04:42:00.425Z,4.30
2019-03-20T04:44:27.062Z,3.90
2019-03-20T04:46:53.848Z,3.08
2019-03-20T04:49:20.438Z,2.98
2019-03-20T04:51:47.089Z,3.17
2019-03-20T04:54:13.668Z,3.08
2019-03-20T04:56:40.153Z,3.25
2019-03-20T04:59:06.656Z,3.20
2019-03-20T05:01:33.146Z,3.47
2019-03-20T05:03:59.643Z,2.92
2019-03-20T05:06:26.115Z,6.25
2019-03-20T05:08:54.722Z,3.75
2019-03-20T05:11:21.251Z,8.10
2019-03-20T05:13:48.092Z,9.85
2019-03-20T05:16:16.066Z,5.00
2019-03-20T05:18:43.539Z,3.35
2019-03-20T05:21:10.119Z,4.00
2019-03-20T05:23:36.801Z,3.60
2019-03-20T05:26:05.142Z,11.95
2019-03-20T05:28:31.663Z,11.55
2019-03-20T05:30:58.367Z,13.40
2019-03-20T05:33:25.020Z,12.13
2019-03-20T05:35:51.504Z,29.72
2019-03-20T05:38:18.123Z,28.95
2019-03-20T05:40:44.682Z,15.53
2019-03-20T05:43:11.517Z,14.28
2019-03-20T05:45:38.596Z,17.48
2019-03-20T05:48:05.511Z,15.32
2019-03-20T05:50:32.476Z,17.02
2019-03-20T05:52:59.355Z,22.62
2019-03-20T05:55:26.128Z,18.37
2019-03-20T05:57:52.771Z,15.55
2019-03-20T06:00:21.162Z,10.25
2019-03-20T06:02:48.052Z,8.88
2019-03-20T06:05:14.854Z,10.28
2019-03-20T06:07:41.503Z,4.58
2019-03-20T06:10:10.633Z,4.25
2019-03-20T06:12:37.456Z,5.10
2019-03-20T06:15:05.224Z,4.25
2019-03-20T06:17:32.001Z,4.87
2019-03-20T06:19:58.695Z,4.70
2019-03-20T06:22:25.367Z,3.35
2019-03-20T06:24:52.217Z,2.83
2019-03-20T06:27:18.966Z,3.10
2019-03-20T06:29:45.640Z,3.83
2019-03-20T06:32:12.105Z,3.60
2019-03-20T06:34:39.689Z,3.30
2019-03-20T06:37:06.264Z,3.27
2019-03-20T06:39:32.888Z,4.42
2019-03-20T06:41:59.499Z,6.00
2019-03-20T06:44:26.015Z,5.42
2019-03-20T06:46:52.574Z,3.90
2019-03-20T06:49:19.137Z,4.70
2019-03-20T06:51:45.918Z,4.17
2019-03-20T06:54:12.524Z,2.83
2019-03-20T06:56:39.258Z,3.02
2019-03-20T06:59:30.101Z,3.40
2019-03-20T07:01:58.558Z,3.15
2019-03-20T07:04:43.724Z,3.15
2019-03-20T07:07:22.635Z,2.67
2019-03-20T07:09:53.086Z,2.80
2019-03-20T07:12:19.675Z,2.90
2019-03-20T07:14:46.408Z,2.62
2019-03-20T07:17:13.225Z,2.52
2019-03-20T07:19:39.966Z,2.50
2019-03-20T07:22:06.782Z,2.40
2019-03-20T07:24:33.442Z,2.83
2019-03-20T07:27:00.215Z,2.42
2019-03-20T07:29:26.901Z,2.30
2019-03-20T07:31:53.503Z,2.60
2019-03-20T07:34:20.107Z,2.50
2019-03-20T07:36:47.035Z,2.83
2019-03-20T07:39:13.598Z,2.30
2019-03-20T07:41:40.292Z,2.45
2019-03-20T07:44:06.866Z,2.80
2019-03-20T07:46:33.549Z,2.20
2019-03-20T07:49:00.143Z,2.50
2019-03-20T07:51:26.669Z,2.30
2019-03-20T07:53:53.166Z,2.67
2019-03-20T07:56:19.829Z,2.50
2019-03-20T07:58:46.489Z,2.35
2019-03-20T08:01:13.216Z,2.30
2019-03-20T08:03:39.831Z,2.25
2019-03-20T08:06:06.422Z,2.60
2019-03-20T08:08:33.244Z,2.20
2019-03-20T08:10:59.882Z,2.42
2019-03-20T08:13:27.671Z,2.08
2019-03-20T08:15:54.352Z,1.92
2019-03-20T08:18:20.973Z,1.85
2019-03-20T08:20:47.807Z,2.00
2019-03-20T08:23:14.563Z,2.05
2019-03-20T08:25:41.091Z,2.15
2019-03-20T08:28:07.750Z,2.17
2019-03-20T08:30:34.691Z,1.80
2019-03-20T08:33:01.322Z,2.20
2019-03-20T08:35:28.026Z,1.90
2019-03-20T08:37:54.823Z,2.00
2019-03-20T08:40:21.461Z,1.90
2019-03-20T08:49:15.124Z,2.00
2019-03-20T09:01:06.439Z,3.40
2019-03-20T09:03:32.870Z,1.70
2019-03-20T09:05:59.416Z,2.20
2019-03-20T09:08:29.612Z,2.00
2019-03-20T09:10:54.196Z,1.90
2019-03-20T09:13:20.645Z,1.85
2019-03-20T09:15:47.163Z,1.90
2019-03-20T09:18:13.562Z,2.00
2019-03-20T09:20:39.993Z,2.20
2019-03-20T09:23:06.436Z,1.92
2019-03-20T09:25:32.885Z,1.67
2019-03-20T09:28:00.436Z,1.80
2019-03-20T09:30:28.493Z,1.70
2019-03-20T09:32:56.117Z,1.70
2019-03-20T09:35:22.754Z,1.80
2019-03-20T09:37:52.245Z,1.98
2019-03-20T09:40:20.126Z,1.60
2019-03-20T09:42:46.561Z,1.80
2019-03-20T09:45:15.615Z,1.37
2019-03-20T09:47:42.720Z,2.10
2019-03-20T09:50:11.390Z,1.50
2019-03-20T09:52:38.829Z,2.00
2019-03-20T09:55:07.856Z,1.70
2019-03-20T09:57:34.405Z,1.57
2019-03-20T10:00:00.842Z,1.70
2019-03-20T10:02:27.295Z,1.50
2019-03-20T10:04:53.790Z,1.40
2019-03-20T10:07:20.239Z,1.57
2019-03-20T10:09:46.723Z,1.95
2019-03-20T10:12:13.226Z,1.60
2019-03-20T10:14:39.679Z,1.50
2019-03-20T10:17:06.124Z,1.45
2019-03-20T10:19:32.602Z,1.60
2019-03-20T10:21:59.071Z,1.45
2019-03-20T10:24:25.507Z,1.77
2019-03-20T10:26:51.938Z,1.60
2019-03-20T10:29:18.442Z,1.50
2019-03-20T10:31:44.898Z,1.30
2019-03-20T10:34:11.380Z,1.60
2019-03-20T10:36:37.834Z,1.60
2019-03-20T10:39:06.804Z,1.50
2019-03-20T10:41:33.417Z,2.37
2019-03-20T10:43:59.845Z,1.40
2019-03-20T10:46:26.312Z,1.60
2019-03-20T10:48:52.747Z,1.42
2019-03-20T10:51:19.220Z,1.67
2019-03-20T10:53:45.639Z,1.50
2019-03-20T10:56:12.104Z,1.60
2019-03-20T10:58:38.533Z,1.57
2019-03-20T11:01:05.002Z,1.60
2019-03-20T11:03:31.656Z,1.47
2019-03-20T11:05:58.114Z,1.45
2019-03-20T11:08:24.709Z,1.87
2019-03-20T11:10:51.264Z,1.45
2019-03-20T11:13:17.731Z,1.72
2019-03-20T11:15:44.195Z,1.70
2019-03-20T11:18:10.649Z,1.57
2019-03-20T11:20:37.213Z,1.50
2019-03-20T11:23:03.850Z,1.55
2019-03-20T11:25:30.706Z,1.67
2019-03-20T11:27:57.410Z,1.30
2019-03-20T11:30:29.250Z,1.52
2019-03-20T11:32:56.096Z,1.50
2019-03-20T11:35:22.777Z,1.40
2019-03-20T11:37:49.590Z,1.60
2019-03-20T11:40:35.263Z,1.47
2019-03-20T11:43:06.024Z,1.60
2019-03-20T11:45:38.349Z,1.45
2019-03-20T11:48:06.807Z,1.65
2019-03-20T11:50:37.551Z,1.40
2019-03-20T11:53:06.689Z,1.50
2019-03-20T11:55:33.396Z,1.50
2019-03-20T11:58:00.578Z,1.70
2019-03-20T12:00:27.437Z,1.55
2019-03-20T12:02:56.006Z,1.60
2019-03-20T12:05:25.646Z,1.30
2019-03-20T12:07:54.218Z,1.20
2019-03-20T12:10:26.259Z,1.72
2019-03-20T12:12:52.975Z,1.40
2019-03-20T12:15:19.827Z,1.20
2019-03-20T12:17:46.814Z,1.65
2019-03-20T12:20:19.988Z,1.85
2019-03-20T12:22:47.641Z,1.95
2019-03-20T12:25:19.263Z,1.60
2019-03-20T12:27:47.205Z,1.60
2019-03-20T12:30:32.632Z,1.52
2019-03-20T12:36:08.589Z,1.70
2019-03-20T12:38:36.227Z,1.37
2019-03-20T12:41:02.959Z,1.37
2019-03-20T12:43:29.560Z,1.40
2019-03-20T12:45:56.028Z,1.60
2019-03-20T12:48:22.690Z,1.47
2019-03-20T12:50:49.309Z,1.57
2019-03-20T12:53:24.755Z,1.50
2019-03-20T12:55:51.725Z,1.70
2019-03-20T12:58:18.579Z,1.40
2019-03-20T13:05:37.957Z,1.50
2019-03-20T13:08:06.108Z,1.50
2019-03-20T13:10:33.443Z,1.87
2019-03-20T13:13:00.317Z,1.50
2019-03-20T13:15:27.700Z,1.62
2019-03-20T13:17:55.226Z,1.70
2019-03-20T13:20:22.195Z,1.40
2019-03-20T13:23:00.562Z,1.72
2019-03-20T13:25:27.348Z,1.70
2019-03-20T13:27:54.180Z,1.52
2019-03-20T13:30:39.587Z,1.52
2019-03-20T13:33:06.317Z,1.85
2019-03-20T13:35:33.130Z,1.17
2019-03-20T13:38:02.304Z,1.80
2019-03-20T13:40:35.622Z,1.47
2019-03-20T13:43:04.822Z,1.60
2019-03-20T13:45:31.755Z,1.85
2019-03-20T13:47:59.403Z,1.60
2019-03-20T13:50:26.090Z,1.50
2019-03-20T13:52:53.816Z,1.60
2019-03-20T13:55:20.640Z,1.40
2019-03-20T13:57:47.378Z,1.57
2019-03-20T14:00:23.823Z,1.55
2019-03-20T14:02:50.648Z,1.90
2019-03-20T14:05:17.481Z,1.47
2019-03-20T14:07:44.293Z,1.60
2019-03-20T14:10:24.515Z,1.98
2019-03-20T14:12:45.460Z,1.60
2019-03-20T14:15:13.755Z,1.40
2019-03-20T14:17:40.466Z,1.40
2019-03-20T14:20:12.336Z,1.30
2019-03-20T14:22:39.141Z,1.50
2019-03-20T14:25:08.517Z,1.40
2019-03-20T14:27:35.386Z,1.50
2019-03-20T14:30:28.391Z,1.70
2019-03-20T14:33:14.012Z,1.93
2019-03-20T14:38:38.082Z,1.52
2019-03-20T14:41:06.705Z,1.77
2019-03-20T14:43:33.344Z,1.70
2019-03-20T14:46:02.640Z,1.82
2019-03-20T14:48:31.874Z,1.70
2019-03-20T14:51:19.154Z,1.65
2019-03-20T14:53:49.240Z,1.57
2019-03-20T14:56:17.378Z,1.80
2019-03-20T14:58:44.964Z,1.95
2019-03-20T15:01:14.542Z,1.95
2019-03-20T15:03:42.177Z,1.72
2019-03-20T15:06:08.675Z,1.52
2019-03-20T15:08:35.391Z,1.62
2019-03-20T15:11:02.017Z,1.85
2019-03-20T15:13:29.588Z,2.02
2019-03-20T15:16:03.053Z,1.77
2019-03-20T15:18:29.642Z,1.60
2019-03-20T15:20:56.349Z,1.70
2019-03-20T15:23:22.805Z,1.50
2019-03-20T15:25:49.268Z,1.55
2019-03-20T15:28:16.144Z,1.62
2019-03-20T15:30:42.591Z,1.82
2019-03-20T15:33:11.305Z,1.95
2019-03-20T15:35:39.088Z,1.95
2019-03-20T15:38:05.672Z,1.90
2019-03-20T15:40:32.365Z,1.77
2019-03-20T15:42:59.077Z,1.75
2019-03-20T15:45:29.996Z,1.42
2019-03-20T15:47:58.054Z,1.72
2019-03-20T15:50:43.141Z,1.70
2019-03-20T15:53:14.914Z,1.77
2019-03-20T15:56:06.952Z,2.02
2019-03-20T15:58:34.636Z,2.02
2019-03-20T16:01:01.184Z,2.10
2019-03-20T16:03:34.458Z,2.22
2019-03-20T16:06:01.067Z,2.10
2019-03-20T16:08:27.733Z,2.20
2019-03-20T16:10:54.190Z,1.90
2019-03-20T16:13:20.831Z,5.95
2019-03-20T16:15:47.502Z,1.95
2019-03-20T16:18:14.051Z,2.27
2019-03-20T16:20:40.504Z,1.60
2019-03-20T16:23:07.923Z,1.70
2019-03-20T16:25:34.564Z,1.90
2019-03-20T16:28:01.136Z,1.90
2019-03-20T16:30:31.250Z,1.80
2019-03-20T16:32:57.685Z,1.70
2019-03-20T16:35:24.280Z,2.77
2019-03-20T16:37:50.869Z,1.80
2019-03-20T16:40:23.206Z,2.33
2019-03-20T16:42:49.755Z,1.72
2019-03-20T16:45:21.649Z,2.20
2019-03-20T16:47:48.121Z,3.33
2019-03-20T16:50:16.104Z,1.87
2019-03-20T16:52:42.762Z,1.92
2019-03-20T16:55:11.484Z,2.30
2019-03-20T16:57:37.956Z,1.92
2019-03-20T17:00:11.093Z,2.15
2019-03-20T17:02:37.639Z,2.00
2019-03-20T17:05:05.034Z,2.22
2019-03-20T17:07:31.582Z,1.92
2019-03-20T17:09:58.108Z,2.12
2019-03-20T17:12:24.670Z,2.30
2019-03-20T17:14:51.171Z,2.30
2019-03-20T17:17:18.692Z,2.02
2019-03-20T17:19:45.168Z,2.40
2019-03-20T17:22:11.614Z,2.20
2019-03-20T17:24:38.066Z,2.05
2019-03-20T17:27:04.550Z,2.20
2019-03-20T17:29:31.031Z,2.50
2019-03-20T17:31:57.674Z,2.27
2019-03-20T17:34:24.152Z,3.10
2019-03-20T17:36:51.415Z,4.78
2019-03-20T17:39:17.874Z,2.50
2019-03-20T17:41:44.525Z,1.95
2019-03-20T17:44:11.035Z,2.50
2019-03-20T17:46:37.496Z,2.50
2019-03-20T17:49:04.225Z,2.92
2019-03-20T17:51:30.697Z,2.85
2019-03-20T17:53:57.130Z,3.62
2019-03-20T17:56:23.951Z,8.40
2019-03-20T17:58:50.391Z,5.90
2019-03-20T18:01:21.431Z,6.90
2019-03-20T18:03:47.979Z,14.65
2019-03-20T18:06:15.017Z,4.78
2019-03-20T18:17:52.304Z,6.65
2019-03-20T18:20:19.791Z,8.15
2019-03-20T18:22:46.359Z,8.23
2019-03-20T18:25:13.042Z,17.85
2019-03-20T18:27:39.592Z,12.70
2019-03-20T18:30:18.044Z,8.20
2019-03-20T18:32:44.570Z,6.80
2019-03-20T18:35:11.229Z,9.18
2019-03-20T18:37:37.714Z,11.08
2019-03-20T18:40:07.783Z,7.45
2019-03-20T18:42:34.236Z,6.97
2019-03-20T18:45:00.757Z,4.45
2019-03-20T18:47:27.195Z,3.80
2019-03-20T18:49:53.817Z,5.20
2019-03-20T18:52:20.344Z,5.78
2019-03-20T18:54:46.883Z,4.47
2019-03-20T18:57:15.518Z,6.17
2019-03-20T18:59:42.277Z,7.75
2019-03-20T19:02:08.856Z,6.03
2019-03-20T19:04:35.441Z,13.45
2019-03-20T19:07:02.139Z,6.50
2019-03-20T19:09:28.620Z,4.85
2019-03-20T19:11:55.109Z,4.17
2019-03-20T19:14:21.581Z,4.55
2019-03-20T19:16:48.143Z,10.48
2019-03-20T19:19:14.652Z,8.03
2019-03-20T19:21:41.223Z,12.30
2019-03-20T19:24:07.670Z,12.47
2019-03-20T19:26:34.359Z,7.25
2019-03-20T19:29:00.827Z,20.27
2019-03-20T19:31:27.306Z,17.82
2019-03-20T19:33:53.884Z,6.08
2019-03-20T19:36:20.442Z,7.53
2019-03-20T19:38:47.017Z,10.38
2019-03-20T19:41:13.468Z,24.85
2019-03-20T19:43:40.196Z,10.48
2019-03-20T19:46:09.582Z,11.40
2019-03-20T19:48:36.042Z,20.50
2019-03-20T19:51:02.734Z,18.07
2019-03-20T19:53:29.515Z,5.08
2019-03-20T19:55:56.114Z,6.58
2019-03-20T19:58:22.775Z,4.65
2019-03-20T20:00:49.520Z,4.00
2019-03-20T20:03:16.249Z,14.18
2019-03-20T20:05:42.894Z,27.10
2019-03-20T20:08:09.945Z,36.48
2019-03-20T20:10:36.395Z,24.52
2019-03-20T20:13:03.065Z,9.35
2019-03-20T20:15:31.630Z,13.68
2019-03-20T20:17:58.117Z,4.08
2019-03-20T20:20:27.375Z,12.15
2019-03-20T20:22:53.845Z,13.70
2019-03-20T20:25:20.293Z,22.90
2019-03-20T20:27:46.857Z,30.55
2019-03-20T20:30:17.944Z,30.75
2019-03-20T20:32:44.812Z,14.28
2019-03-20T20:35:13.020Z,20.48
2019-03-20T20:37:39.651Z,38.28
2019-03-20T20:40:11.391Z,19.77
2019-03-20T20:42:42.830Z,18.90
2019-03-20T20:45:08.038Z,16.17
2019-03-20T20:47:34.482Z,15.08
2019-03-20T20:50:01.061Z,16.10
2019-03-20T20:52:27.500Z,10.15
2019-03-20T20:54:53.925Z,9.10
2019-03-20T20:57:20.424Z,13.90
2019-03-20T20:59:47.061Z,12.30
2019-03-20T21:02:13.505Z,12.55
2019-03-20T21:04:39.976Z,10.10
2019-03-20T21:07:06.401Z,9.03
2019-03-20T21:09:32.840Z,6.72
2019-03-20T21:11:59.565Z,5.10
2019-03-20T21:14:25.998Z,6.42
2019-03-20T21:16:52.450Z,5.97
2019-03-20T21:19:35.895Z,4.50
2019-03-20T21:22:30.133Z,5.37
2019-03-20T21:24:56.611Z,6.60
2019-03-20T21:27:49.290Z,7.05
2019-03-20T21:30:31.660Z,6.85
2019-03-20T21:33:04.728Z,5.47
2019-03-20T21:36:08.002Z,3.72
2019-03-20T21:38:34.430Z,3.25
2019-03-20T21:41:19.877Z,3.70
2019-03-20T21:44:23.425Z,4.03
2019-03-20T21:46:53.673Z,3.92
2019-03-20T21:49:20.134Z,3.52
2019-03-20T21:51:46.581Z,3.83
2019-03-20T21:54:42.631Z,3.15
2019-03-20T21:57:22.003Z,3.40
2019-03-20T22:00:14.801Z,3.50
2019-03-20T22:02:43.322Z,3.37
2019-03-20T22:05:23.244Z,3.55
2019-03-20T22:07:47.574Z,3.98
2019-03-20T22:10:21.487Z,3.60
2019-03-20T22:12:54.752Z,3.87
2019-03-20T22:15:37.154Z,3.45
2019-03-20T22:18:25.177Z,3.37
2019-03-20T22:21:04.014Z,3.80
2019-03-20T22:23:55.010Z,3.42
2019-03-20T22:26:28.327Z,3.72
2019-03-20T22:29:21.868Z,3.52
2019-03-20T22:32:03.806Z,3.42
2019-03-20T22:34:50.448Z,3.75
2019-03-20T22:37:16.880Z,4.15
2019-03-20T22:40:13.557Z,3.62
2019-03-20T22:42:46.410Z,3.62
2019-03-20T22:45:37.751Z,3.80
2019-03-20T22:48:14.838Z,4.22
2019-03-20T22:50:46.159Z,3.65
2019-03-20T22:53:42.015Z,4.08
2019-03-20T22:56:28.859Z,5.62
2019-03-20T22:58:55.320Z,5.10
2019-03-20T23:01:31.328Z,5.42
2019-03-20T23:04:01.718Z,4.53
2019-03-20T23:06:28.240Z,3.70
2019-03-20T23:08:55.796Z,6.50
2019-03-20T23:11:22.236Z,6.17
2019-03-20T23:13:48.700Z,5.17
2019-03-20T23:16:18.277Z,3.75
2019-03-20T23:18:44.737Z,4.60
2019-03-20T23:21:11.183Z,4.30
2019-03-20T23:23:37.955Z,3.62
2019-03-20T23:26:04.593Z,3.92
2019-03-20T23:28:31.099Z,3.95
2019-03-20T23:30:57.665Z,4.25
2019-03-20T23:33:24.198Z,6.45
2019-03-20T23:35:50.782Z,3.70
2019-03-20T23:38:17.348Z,3.72
2019-03-20T23:40:43.800Z,3.30
2019-03-20T23:43:11.598Z,3.60
2019-03-20T23:45:38.164Z,3.52
2019-03-20T23:48:20.302Z,3.77
2019-03-20T23:50:50.435Z,3.35
2019-03-20T23:53:17.279Z,3.50
2019-03-20T23:55:43.723Z,3.50
2019-03-20T23:58:10.282Z,3.50
